createdAt,value
2023-03-21T00:02:29.767Z,11.47
2023-03-21T00:05:32.696Z,11.47
2023-03-21T00:08:35.788Z,11.42
2023-03-21T00:11:38.565Z,11.33
2023-03-21T00:14:45.000Z,11.31
2023-03-21T00:17:50.971Z,11.23
2023-03-21T00:24:24.112Z,11.16
2023-03-21T00:27:45.301Z,11.03
2023-03-21T00:30:51.106Z,10.93
2023-03-21T00:33:53.717Z,10.81
2023-03-21T00:36:56.387Z,10.78
2023-03-21T00:39:59.169Z,10.69
2023-03-21T00:43:02.092Z,10.71
2023-03-21T00:46:05.142Z,10.59
2023-03-21T00:49:08.268Z,10.58
2023-03-21T00:52:24.781Z,10.57
2023-03-21T00:55:34.021Z,10.45
2023-03-21T00:58:36.861Z,10.48
2023-03-21T01:01:40.127Z,10.51
2023-03-21T01:04:42.866Z,10.51
2023-03-21T01:07:46.342Z,10.47
2023-03-21T01:10:49.924Z,10.47
2023-03-21T01:13:59.645Z,10.41
2023-03-21T01:17:04.888Z,10.38
2023-03-21T01:20:08.273Z,10.33
2023-03-21T01:23:15.516Z,10.23
2023-03-21T01:26:18.268Z,10.12
2023-03-21T01:29:21.230Z,10.08
2023-03-21T01:32:23.965Z,10.06
2023-03-21T01:35:27.035Z,9.97
2023-03-21T01:38:31.344Z,9.90
2023-03-21T01:41:42.886Z,9.86
2023-03-21T01:45:05.347Z,9.90
2023-03-21T01:48:08.113Z,9.91
2023-03-21T01:51:12.289Z,9.84
2023-03-21T01:54:19.552Z,9.79
2023-03-21T01:57:41.062Z,9.81
2023-03-21T02:00:48.005Z,9.85
2023-03-21T02:03:52.288Z,9.79
2023-03-21T02:07:03.870Z,9.76
2023-03-21T02:10:10.363Z,9.79
2023-03-21T02:13:13.172Z,9.76
2023-03-21T02:16:33.590Z,9.73
2023-03-21T02:19:59.441Z,9.68
2023-03-21T02:23:28.957Z,9.68
2023-03-21T02:27:03.962Z,9.55
2023-03-21T02:30:52.287Z,9.46
2023-03-21T02:34:26.096Z,9.37
2023-03-21T02:38:00.162Z,9.35
2023-03-21T02:41:40.034Z,9.33
2023-03-21T02:45:02.421Z,9.31
2023-03-21T02:48:26.839Z,9.26
2023-03-21T02:51:37.940Z,9.23
2023-03-21T02:54:48.336Z,9.24
2023-03-21T02:57:53.332Z,9.10
2023-03-21T03:00:56.573Z,8.99
2023-03-21T03:04:00.646Z,8.80
2023-03-21T03:07:41.716Z,8.55
2023-03-21T03:11:07.320Z,8.49
2023-03-21T03:14:50.052Z,8.43
2023-03-21T03:18:28.657Z,8.35
2023-03-21T03:21:42.461Z,8.19
2023-03-21T03:24:49.940Z,8.12
2023-03-21T03:27:53.385Z,8.00
2023-03-21T03:31:08.006Z,8.07
2023-03-21T03:34:18.136Z,8.29
2023-03-21T03:37:26.476Z,8.17
2023-03-21T03:40:41.293Z,8.14
2023-03-21T03:43:48.917Z,8.16
2023-03-21T03:47:15.131Z,8.25
2023-03-21T03:50:30.269Z,8.28
2023-03-21T03:53:32.937Z,8.32
2023-03-21T03:56:36.747Z,8.13
2023-03-21T03:59:42.176Z,7.92
2023-03-21T04:02:46.079Z,7.79
2023-03-21T04:05:48.828Z,7.61
2023-03-21T04:08:52.684Z,7.51
2023-03-21T04:11:55.638Z,7.35
2023-03-21T04:15:08.183Z,7.30
2023-03-21T04:18:15.841Z,7.19
2023-03-21T04:21:18.595Z,7.01
2023-03-21T04:24:22.412Z,6.79
2023-03-21T04:27:25.323Z,6.79
2023-03-21T04:30:28.077Z,6.71
2023-03-21T04:33:30.751Z,6.70
2023-03-21T04:36:39.550Z,6.67
2023-03-21T04:39:43.070Z,6.69
2023-03-21T04:42:46.757Z,6.57
2023-03-21T04:45:50.758Z,6.58
2023-03-21T04:48:53.558Z,6.62
2023-03-21T04:51:56.323Z,6.66
2023-03-21T04:54:59.118Z,6.56
2023-03-21T04:58:05.354Z,6.52
2023-03-21T05:01:08.893Z,6.66
2023-03-21T05:04:13.671Z,6.59
2023-03-21T05:07:16.386Z,6.65
2023-03-21T05:10:19.201Z,6.44
2023-03-21T05:13:21.901Z,6.55
2023-03-21T05:16:27.205Z,6.45
2023-03-21T05:19:35.699Z,6.40
2023-03-21T05:22:40.716Z,6.31
2023-03-21T05:25:43.365Z,6.35
2023-03-21T05:28:48.324Z,6.48
2023-03-21T05:31:51.810Z,6.56
2023-03-21T05:34:54.503Z,6.56
2023-03-21T05:37:57.334Z,6.62
2023-03-21T05:40:59.949Z,6.83
2023-03-21T05:44:02.830Z,6.90
2023-03-21T05:47:06.325Z,7.00
2023-03-21T05:50:11.834Z,7.08
2023-03-21T05:53:14.658Z,7.08
2023-03-21T05:56:17.311Z,6.95
2023-03-21T05:59:20.136Z,7.33
2023-03-21T06:02:22.866Z,7.57
2023-03-21T06:05:29.042Z,7.75
2023-03-21T06:08:32.423Z,8.02
2023-03-21T06:11:37.349Z,8.19
2023-03-21T06:14:40.090Z,8.44
2023-03-21T06:17:42.850Z,8.78
2023-03-21T06:20:46.593Z,9.09
2023-03-21T06:23:52.811Z,9.41
2023-03-21T06:26:56.276Z,9.59
2023-03-21T06:29:59.090Z,9.96
2023-03-21T06:33:01.877Z,10.29
2023-03-21T06:36:05.404Z,10.53
2023-03-21T06:39:09.002Z,10.72
2023-03-21T06:42:15.147Z,10.87
2023-03-21T06:45:18.727Z,11.06
2023-03-21T06:48:24.836Z,11.27
2023-03-21T06:51:28.558Z,11.43
2023-03-21T06:54:31.465Z,11.42
2023-03-21T06:57:34.190Z,11.52
2023-03-21T07:00:36.989Z,11.69
2023-03-21T07:03:40.541Z,11.84
2023-03-21T07:06:46.532Z,11.95
2023-03-21T07:09:52.421Z,12.08
2023-03-21T07:12:55.371Z,12.17
2023-03-21T07:15:58.622Z,12.38
2023-03-21T07:19:04.696Z,12.46
2023-03-21T07:22:07.774Z,12.53
2023-03-21T07:25:11.349Z,12.58
2023-03-21T07:28:14.230Z,12.76
2023-03-21T07:31:17.894Z,12.88
2023-03-21T07:34:20.927Z,13.04
2023-03-21T07:37:24.166Z,13.00
2023-03-21T07:40:26.825Z,13.20
2023-03-21T07:43:29.623Z,13.20
2023-03-21T07:46:32.486Z,13.35
2023-03-21T07:49:35.263Z,13.37
2023-03-21T07:52:38.491Z,13.62
2023-03-21T07:55:41.169Z,13.86
2023-03-21T07:58:44.185Z,13.93
2023-03-21T08:01:46.820Z,14.02
2023-03-21T08:04:49.784Z,14.07
2023-03-21T08:07:52.514Z,14.35
2023-03-21T08:10:55.423Z,14.59
2023-03-21T08:13:59.531Z,14.63
2023-03-21T08:17:02.366Z,14.81
2023-03-21T08:20:09.182Z,15.01
2023-03-21T08:23:12.048Z,15.01
2023-03-21T08:26:18.601Z,15.12
2023-03-21T08:29:21.924Z,15.07
2023-03-21T08:32:29.501Z,14.94
2023-03-21T08:35:32.346Z,14.97
2023-03-21T08:38:36.187Z,15.26
2023-03-21T08:41:39.043Z,15.51
2023-03-21T08:44:42.599Z,15.54
2023-03-21T08:47:46.167Z,15.85
2023-03-21T08:50:49.137Z,15.83
2023-03-21T08:53:52.326Z,16.08
2023-03-21T08:56:55.348Z,15.91
2023-03-21T08:59:58.147Z,16.26
2023-03-21T09:03:01.681Z,16.64
2023-03-21T09:06:06.066Z,16.72
2023-03-21T09:09:09.610Z,16.63
2023-03-21T09:12:12.518Z,16.71
2023-03-21T09:15:20.308Z,16.94
2023-03-21T09:18:45.405Z,17.11
2023-03-21T09:21:48.726Z,17.31
2023-03-21T09:24:53.535Z,17.51
2023-03-21T09:27:56.739Z,17.66
2023-03-21T09:31:00.941Z,17.62
2023-03-21T09:34:04.152Z,17.06
2023-03-21T09:37:17.545Z,16.65
2023-03-21T09:40:45.073Z,16.25
2023-03-21T09:44:00.582Z,16.34
2023-03-21T09:47:21.944Z,16.42
2023-03-21T09:50:31.958Z,16.70
2023-03-21T09:53:40.375Z,16.85
2023-03-21T09:56:47.859Z,16.87
2023-03-21T09:59:53.803Z,17.02
2023-03-21T10:03:03.410Z,17.38
2023-03-21T10:06:16.665Z,17.59
2023-03-21T10:09:23.130Z,18.31
2023-03-21T10:12:30.963Z,17.85
2023-03-21T10:15:33.749Z,17.44
2023-03-21T10:18:36.836Z,17.85
2023-03-21T10:22:03.711Z,17.72
2023-03-21T10:25:14.807Z,17.19
2023-03-21T10:28:21.037Z,18.31
2023-03-21T10:31:26.639Z,18.92
2023-03-21T10:34:59.272Z,18.29
2023-03-21T10:38:06.474Z,17.85
2023-03-21T10:41:12.581Z,17.23
2023-03-21T10:44:19.623Z,18.04
2023-03-21T10:47:34.086Z,17.73
2023-03-21T10:50:37.307Z,16.97
2023-03-21T10:53:44.016Z,17.19
2023-03-21T10:57:01.285Z,16.82
2023-03-21T11:00:16.082Z,18.41
2023-03-21T11:03:25.671Z,17.23
2023-03-21T11:06:33.060Z,18.84
2023-03-21T11:09:44.682Z,19.09
2023-03-21T11:12:50.877Z,19.64
2023-03-21T11:16:04.198Z,19.35
2023-03-21T11:19:19.383Z,20.80
2023-03-21T11:22:24.439Z,20.38
2023-03-21T11:25:37.887Z,21.60
2023-03-21T11:28:42.130Z,22.47
2023-03-21T11:31:45.091Z,21.99
2023-03-21T11:34:54.076Z,22.18
2023-03-21T11:37:57.331Z,22.65
2023-03-21T11:41:02.527Z,22.67
2023-03-21T11:44:05.648Z,21.08
2023-03-21T11:47:11.403Z,19.77
2023-03-21T11:50:14.027Z,18.86
2023-03-21T11:53:45.084Z,18.23
2023-03-21T11:56:49.462Z,19.92
2023-03-21T11:59:58.917Z,19.64
2023-03-21T12:03:47.587Z,18.74
2023-03-21T12:07:01.590Z,17.61
2023-03-21T12:10:35.832Z,17.45
2023-03-21T12:14:11.053Z,17.23
2023-03-21T12:17:50.828Z,17.22
2023-03-21T12:21:17.360Z,17.36
2023-03-21T12:24:23.787Z,17.57
2023-03-21T12:27:30.936Z,17.51
2023-03-21T12:30:53.969Z,17.19
2023-03-21T12:34:19.128Z,16.63
2023-03-21T12:37:55.539Z,16.46
2023-03-21T12:41:18.045Z,16.43
2023-03-21T12:44:23.080Z,16.55
2023-03-21T12:47:28.909Z,16.48
2023-03-21T12:50:37.898Z,16.14
2023-03-21T12:53:53.218Z,16.57
2023-03-21T12:57:12.085Z,16.76
2023-03-21T13:00:28.846Z,16.88
2023-03-21T13:03:44.082Z,17.03
2023-03-21T13:06:48.722Z,17.09
2023-03-21T13:09:53.638Z,16.98
2023-03-21T13:13:02.721Z,17.02
2023-03-21T13:16:15.962Z,17.18
2023-03-21T13:19:43.085Z,17.22
2023-03-21T13:22:48.194Z,17.17
2023-03-21T13:25:53.077Z,17.18
2023-03-21T13:28:58.515Z,17.06
2023-03-21T13:32:45.223Z,17.29
2023-03-21T13:36:00.472Z,17.28
2023-03-21T13:39:07.000Z,17.17
2023-03-21T13:42:23.965Z,17.13
2023-03-21T13:45:48.275Z,17.33
2023-03-21T13:49:01.379Z,17.37
2023-03-21T13:52:11.134Z,17.03
2023-03-21T13:55:20.606Z,17.11
2023-03-21T13:58:43.117Z,17.20
2023-03-21T14:02:09.745Z,17.42
2023-03-21T14:05:22.279Z,17.14
2023-03-21T14:08:36.903Z,17.10
2023-03-21T14:11:44.544Z,17.09
2023-03-21T14:14:52.613Z,17.08
2023-03-21T14:18:03.392Z,17.14
2023-03-21T14:21:24.660Z,17.06
2023-03-21T14:24:27.837Z,16.91
2023-03-21T14:27:33.261Z,16.79
2023-03-21T14:30:41.263Z,16.60
2023-03-21T14:33:49.763Z,16.63
2023-03-21T14:36:59.335Z,16.44
2023-03-21T14:40:09.333Z,16.44
2023-03-21T14:43:15.145Z,16.41
2023-03-21T14:46:22.206Z,16.29
2023-03-21T14:49:27.369Z,16.38
2023-03-21T14:52:33.096Z,16.41
2023-03-21T14:55:43.016Z,16.32
2023-03-21T14:58:47.694Z,16.37
2023-03-21T15:01:51.679Z,16.43
2023-03-21T15:04:59.200Z,16.47
2023-03-21T15:08:23.377Z,16.36
2023-03-21T15:11:37.782Z,16.34
2023-03-21T15:14:42.078Z,16.24
2023-03-21T15:17:44.923Z,16.11
2023-03-21T15:20:49.940Z,16.11
2023-03-21T15:24:04.099Z,16.11
2023-03-21T15:27:13.048Z,16.08
2023-03-21T15:30:24.678Z,15.99
2023-03-21T15:33:27.477Z,15.98
2023-03-21T15:36:37.911Z,15.86
2023-03-21T15:39:41.288Z,15.81
2023-03-21T15:42:44.435Z,15.69
2023-03-21T15:45:56.097Z,15.68
2023-03-21T15:49:14.898Z,15.60
2023-03-21T15:52:18.120Z,15.60
2023-03-21T15:55:28.956Z,15.60
2023-03-21T15:58:37.266Z,15.58
2023-03-21T16:01:40.545Z,15.53
2023-03-21T16:04:57.492Z,15.51
2023-03-21T16:08:21.252Z,15.44
2023-03-21T16:11:25.762Z,15.41
2023-03-21T16:14:29.151Z,15.31
2023-03-21T16:17:37.863Z,15.24
2023-03-21T16:20:43.658Z,15.17
2023-03-21T16:23:47.700Z,15.08
2023-03-21T16:26:53.592Z,14.99
2023-03-21T16:29:56.348Z,14.93
2023-03-21T16:32:59.028Z,14.81
2023-03-21T16:36:03.092Z,14.66
2023-03-21T16:39:20.017Z,14.54
2023-03-21T16:42:22.826Z,14.38
2023-03-21T16:45:25.761Z,14.21
2023-03-21T16:48:28.528Z,14.00
2023-03-21T16:51:33.724Z,13.81
2023-03-21T16:54:36.428Z,13.60
2023-03-21T16:57:39.622Z,13.39
2023-03-21T17:00:43.173Z,13.17
2023-03-21T17:03:48.567Z,12.91
2023-03-21T17:06:53.393Z,12.61
2023-03-21T17:09:56.508Z,12.38
2023-03-21T17:12:59.787Z,12.17
2023-03-21T17:16:02.936Z,11.91
2023-03-21T17:19:12.214Z,11.71
2023-03-21T17:22:15.092Z,11.45
2023-03-21T17:25:18.768Z,11.18
2023-03-21T17:28:21.835Z,10.93
2023-03-21T17:31:26.230Z,10.62
2023-03-21T17:34:29.484Z,10.43
2023-03-21T17:37:34.553Z,10.23
2023-03-21T17:40:37.678Z,10.13
2023-03-21T17:43:41.231Z,9.99
2023-03-21T17:46:44.336Z,9.88
2023-03-21T17:49:47.471Z,9.71
2023-03-21T17:52:51.841Z,9.59
2023-03-21T17:55:54.551Z,9.42
2023-03-21T17:59:03.473Z,9.29
2023-03-21T18:02:06.439Z,9.18
2023-03-21T18:05:10.929Z,9.09
2023-03-21T18:08:14.075Z,8.94
2023-03-21T18:11:18.144Z,8.76
2023-03-21T18:14:27.830Z,8.62
2023-03-21T18:17:31.471Z,8.53
2023-03-21T18:23:57.169Z,8.32
2023-03-21T18:26:59.876Z,8.16
2023-03-21T18:30:41.322Z,8.08
2023-03-21T18:33:28.704Z,7.93
2023-03-21T18:36:31.813Z,7.77
2023-03-21T18:39:35.388Z,7.77
2023-03-21T18:42:40.146Z,7.68
2023-03-21T18:45:43.496Z,7.57
2023-03-21T18:48:47.987Z,7.43
2023-03-21T18:51:52.729Z,7.32
2023-03-21T18:54:55.748Z,7.16
2023-03-21T18:57:58.377Z,7.10
2023-03-21T19:01:04.344Z,7.08
2023-03-21T19:04:29.731Z,6.92
2023-03-21T19:07:31.697Z,6.84
2023-03-21T19:10:36.785Z,6.69
2023-03-21T19:13:41.160Z,6.62
2023-03-21T19:17:18.369Z,6.44
2023-03-21T19:20:08.767Z,6.43
2023-03-21T19:23:12.105Z,6.38
2023-03-21T19:26:17.772Z,6.39
2023-03-21T19:29:20.906Z,6.42
2023-03-21T19:32:24.249Z,6.44
2023-03-21T19:35:28.881Z,6.50
2023-03-21T19:38:34.866Z,6.54
2023-03-21T19:41:40.556Z,6.58
2023-03-21T19:44:43.863Z,6.53
2023-03-21T19:47:47.629Z,6.54
2023-03-21T19:51:20.477Z,6.69
2023-03-21T19:54:15.052Z,6.70
2023-03-21T19:57:19.738Z,6.64
2023-03-21T20:00:24.195Z,6.55
2023-03-21T20:03:27.050Z,6.51
2023-03-21T20:06:30.120Z,6.66
2023-03-21T20:09:52.469Z,6.75
2023-03-21T20:12:56.875Z,6.84
2023-03-21T20:16:03.775Z,6.92
2023-03-21T20:19:10.334Z,7.00
2023-03-21T20:22:24.859Z,7.05
2023-03-21T20:25:33.937Z,7.12
2023-03-21T20:28:38.277Z,7.17
2023-03-21T20:31:41.723Z,7.18
2023-03-21T20:34:46.247Z,7.13
2023-03-21T20:37:51.234Z,7.22
2023-03-21T20:40:54.321Z,7.33
2023-03-21T20:47:23.843Z,7.41
2023-03-21T20:50:27.871Z,7.49
2023-03-21T20:53:31.944Z,7.49
2023-03-21T20:56:35.475Z,7.54
2023-03-21T20:59:38.792Z,7.60
2023-03-21T21:02:45.916Z,7.63
2023-03-21T21:05:49.205Z,7.54
2023-03-21T21:08:52.278Z,7.60
2023-03-21T21:12:06.510Z,7.63
2023-03-21T21:15:14.352Z,7.65
2023-03-21T21:18:17.182Z,7.68
2023-03-21T21:21:20.325Z,7.66
2023-03-21T21:24:22.844Z,7.66
2023-03-21T21:27:26.239Z,7.72
2023-03-21T21:33:34.533Z,7.77
2023-03-21T21:36:37.446Z,7.82
2023-03-21T21:39:40.375Z,7.85
2023-03-21T21:42:44.424Z,7.80
2023-03-21T21:45:47.990Z,7.81
2023-03-21T21:48:51.765Z,7.84
2023-03-21T21:51:54.533Z,7.88
2023-03-21T21:54:57.338Z,7.91
2023-03-21T21:58:01.547Z,7.79
2023-03-21T22:04:08.539Z,7.83
2023-03-21T22:07:14.799Z,7.84
2023-03-21T22:10:17.992Z,7.86
2023-03-21T22:13:20.640Z,7.89
2023-03-21T22:16:23.400Z,7.87
2023-03-21T22:19:27.839Z,7.87
2023-03-21T22:22:30.505Z,7.79
2023-03-21T22:28:41.458Z,7.71
2023-03-21T22:31:45.531Z,7.73
2023-03-21T22:34:48.248Z,7.65
2023-03-21T22:37:51.089Z,7.56
2023-03-21T22:40:56.057Z,7.57
2023-03-21T22:43:58.787Z,7.60
2023-03-21T22:47:06.531Z,7.61
2023-03-21T22:50:09.726Z,7.63
2023-03-21T22:53:12.557Z,7.62
2023-03-21T22:56:15.497Z,7.63
2023-03-21T22:59:19.171Z,7.65
2023-03-21T23:02:21.846Z,7.68
2023-03-21T23:05:24.699Z,7.60
2023-03-21T23:08:27.967Z,7.62
2023-03-21T23:11:30.696Z,7.68
2023-03-21T23:14:33.385Z,7.71
2023-03-21T23:17:36.372Z,7.73
2023-03-21T23:20:39.337Z,7.72
2023-03-21T23:23:44.026Z,7.64
2023-03-21T23:26:46.834Z,7.66
2023-03-21T23:29:49.911Z,7.68
2023-03-21T23:32:52.682Z,7.63
2023-03-21T23:35:55.648Z,7.63
2023-03-21T23:38:58.754Z,7.66
2023-03-21T23:45:03.048Z,7.71
2023-03-21T23:48:06.130Z,7.67
2023-03-21T23:51:10.825Z,7.64
2023-03-21T23:54:13.608Z,7.64
2023-03-21T23:57:17.367Z,7.68
